sensor_id;sensor_type;location;lat;lon;timestamp;pressure;altitude;pressure_sealevel;temperature;humidity
44198;BME280;30157;55.512;37.764;2022-07-29T00:00:45;99982.72;;;17.79;72.13
44198;BME280;30157;55.512;37.764;2022-07-29T00:03:11;99959.06;;;17.53;71.95
44198;BME280;30157;55.512;37.764;2022-07-29T00:05:41;99985.59;;;17.72;72.69
44198;BME280;30157;55.512;37.764;2022-07-29T00:08:10;99971.00;;;17.63;72.29
44198;BME280;30157;55.512;37.764;2022-07-29T00:10:35;99951.41;;;17.46;72.39
44198;BME280;30157;55.512;37.764;2022-07-29T00:13:01;99994.31;;;17.72;72.77
44198;BME280;30157;55.512;37.764;2022-07-29T00:15:28;100006.38;;;17.78;72.76
44198;BME280;30157;55.512;37.764;2022-07-29T00:17:53;100014.31;;;17.76;72.67
44198;BME280;30157;55.512;37.764;2022-07-29T00:20:19;100000.63;;;17.67;72.69
44198;BME280;30157;55.512;37.764;2022-07-29T00:22:45;100011.19;;;17.65;72.86
44198;BME280;30157;55.512;37.764;2022-07-29T00:25:12;100009.72;;;17.55;72.86
44198;BME280;30157;55.512;37.764;2022-07-29T00:27:38;100004.88;;;17.42;72.86
44198;BME280;30157;55.512;37.764;2022-07-29T00:30:05;100011.91;;;17.40;73.16
44198;BME280;30157;55.512;37.764;2022-07-29T00:32:32;99983.75;;;17.17;72.55
44198;BME280;30157;55.512;37.764;2022-07-29T00:34:57;99953.00;;;16.92;73.26
44198;BME280;30157;55.512;37.764;2022-07-29T00:37:59;99960.94;;;16.91;72.73
44198;BME280;30157;55.512;37.764;2022-07-29T00:40:24;99948.34;;;16.71;72.72
44198;BME280;30157;55.512;37.764;2022-07-29T00:42:51;100016.38;;;17.07;73.09
44198;BME280;30157;55.512;37.764;2022-07-29T00:45:18;100013.13;;;16.99;73.29
44198;BME280;30157;55.512;37.764;2022-07-29T00:47:44;99996.13;;;16.80;73.34
44198;BME280;30157;55.512;37.764;2022-07-29T00:50:11;100026.41;;;16.92;73.30
44198;BME280;30157;55.512;37.764;2022-07-29T00:52:38;100026.50;;;16.88;73.47
44198;BME280;30157;55.512;37.764;2022-07-29T00:55:07;100017.25;;;16.74;73.50
44198;BME280;30157;55.512;37.764;2022-07-29T00:57:34;100038.91;;;16.81;73.64
44198;BME280;30157;55.512;37.764;2022-07-29T01:00:01;100032.91;;;16.76;73.62
44198;BME280;30157;55.512;37.764;2022-07-29T01:02:29;100015.94;;;16.58;73.61
44198;BME280;30157;55.512;37.764;2022-07-29T01:04:55;100013.56;;;16.49;73.62
44198;BME280;30157;55.512;37.764;2022-07-29T01:07:24;100019.69;;;16.48;73.49
44198;BME280;30157;55.512;37.764;2022-07-29T01:09:50;100043.81;;;16.60;73.70
44198;BME280;30157;55.512;37.764;2022-07-29T01:12:22;100013.84;;;16.38;73.52
44198;BME280;30157;55.512;37.764;2022-07-29T01:14:49;100042.28;;;16.52;73.80
44198;BME280;30157;55.512;37.764;2022-07-29T01:17:23;100027.75;;;16.40;74.11
44198;BME280;30157;55.512;37.764;2022-07-29T01:30:30;100052.41;;;16.31;74.72
44198;BME280;30157;55.512;37.764;2022-07-29T01:33:03;100054.22;;;16.27;74.68
44198;BME280;30157;55.512;37.764;2022-07-29T01:38:06;100053.47;;;16.24;74.84
44198;BME280;30157;55.512;37.764;2022-07-29T01:40:49;100039.50;;;16.23;75.00
44198;BME280;30157;55.512;37.764;2022-07-29T01:43:20;100052.59;;;16.25;75.03
44198;BME280;30157;55.512;37.764;2022-07-29T01:46:04;100044.78;;;16.22;75.28
44198;BME280;30157;55.512;37.764;2022-07-29T01:48:35;100039.72;;;16.14;75.27
44198;BME280;30157;55.512;37.764;2022-07-29T01:51:06;100045.84;;;16.15;75.28
44198;BME280;30157;55.512;37.764;2022-07-29T01:53:38;100054.59;;;16.13;75.42
44198;BME280;30157;55.512;37.764;2022-07-29T01:56:08;100032.16;;;16.02;75.39
44198;BME280;30157;55.512;37.764;2022-07-29T01:58:39;100055.56;;;16.09;75.68
44198;BME280;30157;55.512;37.764;2022-07-29T02:01:08;100056.47;;;16.07;75.74
44198;BME280;30157;55.512;37.764;2022-07-29T02:03:36;100026.41;;;15.87;76.02
44198;BME280;30157;55.512;37.764;2022-07-29T02:06:04;100023.84;;;15.84;76.03
44198;BME280;30157;55.512;37.764;2022-07-29T02:08:33;100004.06;;;15.71;75.97
44198;BME280;30157;55.512;37.764;2022-07-29T02:11:04;100061.97;;;15.96;76.32
44198;BME280;30157;55.512;37.764;2022-07-29T02:13:32;100056.84;;;15.91;76.16
44198;BME280;30157;55.512;37.764;2022-07-29T02:16:00;100043.81;;;15.88;76.40
44198;BME280;30157;55.512;37.764;2022-07-29T02:18:28;99985.31;;;15.52;76.06
44198;BME280;30157;55.512;37.764;2022-07-29T02:20:56;100014.69;;;15.65;76.22
44198;BME280;30157;55.512;37.764;2022-07-29T02:23:25;100008.53;;;15.66;76.30
44198;BME280;30157;55.512;37.764;2022-07-29T02:25:53;100061.03;;;15.99;76.15
44198;BME280;30157;55.512;37.764;2022-07-29T02:28:22;100012.00;;;15.68;76.12
44198;BME280;30157;55.512;37.764;2022-07-29T02:30:49;100006.00;;;15.62;76.13
44198;BME280;30157;55.512;37.764;2022-07-29T02:33:18;100077.69;;;15.96;76.41
44198;BME280;30157;55.512;37.764;2022-07-29T02:35:45;100059.53;;;15.88;76.28
44198;BME280;30157;55.512;37.764;2022-07-29T02:38:14;100012.91;;;15.65;76.43
44198;BME280;30157;55.512;37.764;2022-07-29T02:41:01;100070.59;;;16.01;76.45
44198;BME280;30157;55.512;37.764;2022-07-29T02:43:30;100068.78;;;16.03;76.12
44198;BME280;30157;55.512;37.764;2022-07-29T02:45:58;100025.78;;;15.74;76.20
44198;BME280;30157;55.512;37.764;2022-07-29T02:48:41;100024.88;;;15.77;75.95
44198;BME280;30157;55.512;37.764;2022-07-29T02:51:18;100024.03;;;15.76;76.02
44198;BME280;30157;55.512;37.764;2022-07-29T02:53:49;99983.13;;;15.71;75.79
44198;BME280;30157;55.512;37.764;2022-07-29T02:56:20;100059.25;;;16.37;75.02
44198;BME280;30157;55.512;37.764;2022-07-29T02:58:55;100075.91;;;16.69;74.18
44198;BME280;30157;55.512;37.764;2022-07-29T03:01:25;100077.72;;;17.01;73.48
44198;BME280;30157;55.512;37.764;2022-07-29T03:03:55;100058.03;;;17.18;72.58
44198;BME280;30157;55.512;37.764;2022-07-29T03:06:23;100070.91;;;17.57;71.89
44198;BME280;30157;55.512;37.764;2022-07-29T03:08:51;100065.13;;;17.74;71.17
44198;BME280;30157;55.512;37.764;2022-07-29T03:11:17;100080.81;;;18.07;69.77
44198;BME280;30157;55.512;37.764;2022-07-29T03:13:44;100043.09;;;18.09;70.14
44198;BME280;30157;55.512;37.764;2022-07-29T03:16:10;100079.88;;;18.61;69.56
44198;BME280;30157;55.512;37.764;2022-07-29T03:18:38;100033.44;;;18.62;69.15
44198;BME280;30157;55.512;37.764;2022-07-29T03:21:04;100073.59;;;19.18;67.95
44198;BME280;30157;55.512;37.764;2022-07-29T03:23:30;100033.31;;;19.16;66.82
44198;BME280;30157;55.512;37.764;2022-07-29T03:25:56;100033.19;;;19.42;65.54
44198;BME280;30157;55.512;37.764;2022-07-29T03:28:22;100072.47;;;19.94;65.13
44198;BME280;30157;55.512;37.764;2022-07-29T03:30:49;100074.06;;;20.21;63.89
44198;BME280;30157;55.512;37.764;2022-07-29T03:33:18;100048.44;;;20.24;62.61
44198;BME280;30157;55.512;37.764;2022-07-29T03:35:43;100072.00;;;20.50;62.39
44198;BME280;30157;55.512;37.764;2022-07-29T03:38:09;100059.22;;;20.61;61.08
44198;BME280;30157;55.512;37.764;2022-07-29T03:40:46;100059.84;;;20.88;60.09
44198;BME280;30157;55.512;37.764;2022-07-29T03:43:16;100060.03;;;21.04;59.48
44198;BME280;30157;55.512;37.764;2022-07-29T03:45:47;100063.06;;;21.35;59.22
44198;BME280;30157;55.512;37.764;2022-07-29T03:48:16;100028.50;;;21.20;57.68
44198;BME280;30157;55.512;37.764;2022-07-29T03:50:43;100071.22;;;21.68;57.45
44198;BME280;30157;55.512;37.764;2022-07-29T03:53:10;100079.84;;;21.91;56.43
44198;BME280;30157;55.512;37.764;2022-07-29T03:55:41;100060.75;;;22.03;54.76
44198;BME280;30157;55.512;37.764;2022-07-29T03:58:08;100079.78;;;22.29;53.63
44198;BME280;30157;55.512;37.764;2022-07-29T04:00:35;100083.88;;;22.36;53.85
44198;BME280;30157;55.512;37.764;2022-07-29T04:03:03;100082.63;;;22.61;52.56
44198;BME280;30157;55.512;37.764;2022-07-29T04:05:31;100075.69;;;22.76;53.18
44198;BME280;30157;55.512;37.764;2022-07-29T04:07:57;100084.59;;;23.08;52.50
44198;BME280;30157;55.512;37.764;2022-07-29T04:10:22;100078.75;;;23.19;51.88
44198;BME280;30157;55.512;37.764;2022-07-29T04:12:49;100079.72;;;23.34;50.48
44198;BME280;30157;55.512;37.764;2022-07-29T04:15:14;100093.88;;;23.51;49.86
44198;BME280;30157;55.512;37.764;2022-07-29T04:17:40;100073.88;;;23.61;49.35
44198;BME280;30157;55.512;37.764;2022-07-29T04:20:06;100036.19;;;23.56;49.05
44198;BME280;30157;55.512;37.764;2022-07-29T04:22:32;100051.25;;;23.71;48.38
44198;BME280;30157;55.512;37.764;2022-07-29T04:24:58;100071.34;;;23.91;47.95
44198;BME280;30157;55.512;37.764;2022-07-29T04:27:23;100066.03;;;23.75;49.01
44198;BME280;30157;55.512;37.764;2022-07-29T04:29:49;100063.78;;;23.68;49.33
44198;BME280;30157;55.512;37.764;2022-07-29T04:32:15;100096.97;;;23.91;49.18
44198;BME280;30157;55.512;37.764;2022-07-29T04:34:40;100085.88;;;24.00;49.04
44198;BME280;30157;55.512;37.764;2022-07-29T04:37:06;100093.72;;;24.18;48.46
44198;BME280;30157;55.512;37.764;2022-07-29T04:39:32;100098.97;;;24.49;47.10
44198;BME280;30157;55.512;37.764;2022-07-29T04:41:57;100097.91;;;24.68;47.13
44198;BME280;30157;55.512;37.764;2022-07-29T04:44:23;100096.25;;;24.96;46.24
44198;BME280;30157;55.512;37.764;2022-07-29T04:46:49;100081.25;;;25.09;45.75
44198;BME280;30157;55.512;37.764;2022-07-29T04:49:14;100095.34;;;25.40;44.37
44198;BME280;30157;55.512;37.764;2022-07-29T04:51:40;100087.84;;;25.47;44.49
44198;BME280;30157;55.512;37.764;2022-07-29T04:54:06;100090.66;;;25.73;43.39
44198;BME280;30157;55.512;37.764;2022-07-29T04:56:32;100073.59;;;25.62;43.76
44198;BME280;30157;55.512;37.764;2022-07-29T04:58:57;100098.34;;;25.77;43.51
44198;BME280;30157;55.512;37.764;2022-07-29T05:01:23;100082.97;;;25.68;43.90
44198;BME280;30157;55.512;37.764;2022-07-29T05:03:49;99999.63;;;25.27;43.35
44198;BME280;30157;55.512;37.764;2022-07-29T05:06:14;100045.56;;;25.71;41.74
44198;BME280;30157;55.512;37.764;2022-07-29T05:08:40;100091.34;;;26.04;42.01
44198;BME280;30157;55.512;37.764;2022-07-29T05:11:06;100094.75;;;26.33;41.79
44198;BME280;30157;55.512;37.764;2022-07-29T05:13:31;100095.91;;;26.69;40.88
44198;BME280;30157;55.512;37.764;2022-07-29T05:15:57;100098.41;;;26.32;40.99
44198;BME280;30157;55.512;37.764;2022-07-29T05:18:26;100073.28;;;25.67;40.79
44198;BME280;30157;55.512;37.764;2022-07-29T05:20:51;100100.75;;;26.09;40.28
44198;BME280;30157;55.512;37.764;2022-07-29T05:23:17;100104.44;;;26.34;40.19
44198;BME280;30157;55.512;37.764;2022-07-29T05:25:43;100064.25;;;26.39;39.42
44198;BME280;30157;55.512;37.764;2022-07-29T05:28:09;100094.16;;;26.82;39.55
44198;BME280;30157;55.512;37.764;2022-07-29T05:30:34;100057.50;;;26.99;38.33
44198;BME280;30157;55.512;37.764;2022-07-29T05:33:00;100086.47;;;27.42;38.17
44198;BME280;30157;55.512;37.764;2022-07-29T05:35:26;100099.59;;;27.45;37.89
44198;BME280;30157;55.512;37.764;2022-07-29T05:37:52;100065.38;;;27.13;38.27
44198;BME280;30157;55.512;37.764;2022-07-29T05:40:17;100100.25;;;27.10;38.65
44198;BME280;30157;55.512;37.764;2022-07-29T05:42:43;100085.94;;;27.24;38.35
44198;BME280;30157;55.512;37.764;2022-07-29T05:45:09;100065.06;;;27.18;37.71
44198;BME280;30157;55.512;37.764;2022-07-29T05:47:35;100091.25;;;27.63;37.16
44198;BME280;30157;55.512;37.764;2022-07-29T05:50:00;100044.47;;;27.46;37.38
44198;BME280;30157;55.512;37.764;2022-07-29T05:52:28;100094.88;;;27.62;37.37
44198;BME280;30157;55.512;37.764;2022-07-29T05:54:54;100089.41;;;27.76;37.70
44198;BME280;30157;55.512;37.764;2022-07-29T05:57:22;100095.34;;;27.80;38.31
44198;BME280;30157;55.512;37.764;2022-07-29T05:59:48;100083.13;;;28.02;37.10
44198;BME280;30157;55.512;37.764;2022-07-29T06:02:15;100095.69;;;28.37;37.14
44198;BME280;30157;55.512;37.764;2022-07-29T06:04:43;100096.44;;;28.86;36.53
44198;BME280;30157;55.512;37.764;2022-07-29T06:07:09;100099.25;;;28.84;36.04
44198;BME280;30157;55.512;37.764;2022-07-29T06:09:35;100086.38;;;29.00;35.71
44198;BME280;30157;55.512;37.764;2022-07-29T06:12:01;100095.44;;;28.64;36.72
44198;BME280;30157;55.512;37.764;2022-07-29T06:14:27;100054.78;;;27.88;36.81
44198;BME280;30157;55.512;37.764;2022-07-29T06:16:54;100098.63;;;28.45;36.12
44198;BME280;30157;55.512;37.764;2022-07-29T06:19:20;100092.06;;;28.85;35.01
44198;BME280;30157;55.512;37.764;2022-07-29T06:21:46;100093.56;;;29.11;34.89
44198;BME280;30157;55.512;37.764;2022-07-29T06:24:14;100093.47;;;29.36;34.26
44198;BME280;30157;55.512;37.764;2022-07-29T06:26:41;100037.94;;;28.82;34.89
44198;BME280;30157;55.512;37.764;2022-07-29T06:29:08;100087.75;;;29.52;34.04
44198;BME280;30157;55.512;37.764;2022-07-29T06:31:33;100090.41;;;29.86;33.56
44198;BME280;30157;55.512;37.764;2022-07-29T06:33:59;100073.56;;;30.06;32.57
44198;BME280;30157;55.512;37.764;2022-07-29T06:36:25;100024.94;;;30.01;32.60
44198;BME280;30157;55.512;37.764;2022-07-29T06:38:51;100047.72;;;30.16;31.39
44198;BME280;30157;55.512;37.764;2022-07-29T06:41:17;100071.78;;;30.28;31.48
44198;BME280;30157;55.512;37.764;2022-07-29T06:43:44;100054.19;;;30.46;31.67
44198;BME280;30157;55.512;37.764;2022-07-29T06:46:13;99980.78;;;30.28;31.68
44198;BME280;30157;55.512;37.764;2022-07-29T06:48:40;100084.31;;;29.83;32.74
44198;BME280;30157;55.512;37.764;2022-07-29T06:51:10;100090.19;;;28.62;34.52
44198;BME280;30157;55.512;37.764;2022-07-29T06:53:37;100081.06;;;29.23;33.96
44198;BME280;30157;55.512;37.764;2022-07-29T06:56:05;100080.56;;;29.18;33.83
44198;BME280;30157;55.512;37.764;2022-07-29T06:58:31;100040.97;;;29.69;33.33
44198;BME280;30157;55.512;37.764;2022-07-29T07:00:58;100070.63;;;29.54;32.32
44198;BME280;30157;55.512;37.764;2022-07-29T07:03:24;100084.94;;;30.20;32.66
44198;BME280;30157;55.512;37.764;2022-07-29T07:05:52;100080.22;;;30.44;31.80
44198;BME280;30157;55.512;37.764;2022-07-29T07:08:18;100080.56;;;29.75;31.69
44198;BME280;30157;55.512;37.764;2022-07-29T07:10:45;100079.50;;;29.43;31.95
44198;BME280;30157;55.512;37.764;2022-07-29T07:13:11;100071.00;;;30.05;31.44
44198;BME280;30157;55.512;37.764;2022-07-29T07:15:37;100086.44;;;30.45;30.88
44198;BME280;30157;55.512;37.764;2022-07-29T07:18:04;100090.13;;;30.86;30.30
44198;BME280;30157;55.512;37.764;2022-07-29T07:20:32;100093.03;;;31.04;29.73
44198;BME280;30157;55.512;37.764;2022-07-29T07:22:58;100092.06;;;31.36;29.41
44198;BME280;30157;55.512;37.764;2022-07-29T07:25:23;100061.03;;;31.43;28.82
44198;BME280;30157;55.512;37.764;2022-07-29T07:27:49;100031.41;;;31.45;28.77
44198;BME280;30157;55.512;37.764;2022-07-29T07:30:15;100044.13;;;31.43;28.59
44198;BME280;30157;55.512;37.764;2022-07-29T07:32:41;100037.97;;;31.21;28.97
44198;BME280;30157;55.512;37.764;2022-07-29T07:35:08;100086.63;;;31.16;28.57
44198;BME280;30157;55.512;37.764;2022-07-29T07:37:35;100091.97;;;31.16;28.89
44198;BME280;30157;55.512;37.764;2022-07-29T07:40:01;100083.19;;;30.62;29.00
44198;BME280;30157;55.512;37.764;2022-07-29T07:42:29;100041.19;;;31.15;27.96
44198;BME280;30157;55.512;37.764;2022-07-29T07:44:55;100080.81;;;31.93;27.39
44198;BME280;30157;55.512;37.764;2022-07-29T07:47:21;100083.38;;;32.33;26.89
44198;BME280;30157;55.512;37.764;2022-07-29T07:49:49;100091.28;;;32.55;26.60
44198;BME280;30157;55.512;37.764;2022-07-29T07:52:16;100097.78;;;32.62;26.26
44198;BME280;30157;55.512;37.764;2022-07-29T07:54:42;100078.50;;;30.43;28.44
44198;BME280;30157;55.512;37.764;2022-07-29T07:57:11;100086.22;;;28.79;30.28
44198;BME280;30157;55.512;37.764;2022-07-29T07:59:38;100091.09;;;28.86;31.32
44198;BME280;30157;55.512;37.764;2022-07-29T08:02:04;100059.16;;;29.75;30.62
44198;BME280;30157;55.512;37.764;2022-07-29T08:04:30;100114.28;;;30.75;29.99
44198;BME280;30157;55.512;37.764;2022-07-29T08:06:57;100106.19;;;30.86;29.21
44198;BME280;30157;55.512;37.764;2022-07-29T08:09:24;100110.00;;;31.05;29.26
44198;BME280;30157;55.512;37.764;2022-07-29T08:11:50;100088.13;;;31.40;29.26
44198;BME280;30157;55.512;37.764;2022-07-29T08:14:19;100090.22;;;31.67;28.23
44198;BME280;30157;55.512;37.764;2022-07-29T08:16:45;100093.41;;;31.21;28.32
44198;BME280;30157;55.512;37.764;2022-07-29T08:19:12;100041.19;;;29.65;30.12
44198;BME280;30157;55.512;37.764;2022-07-29T08:21:38;100054.22;;;29.36;30.79
44198;BME280;30157;55.512;37.764;2022-07-29T08:24:04;100064.22;;;28.29;32.00
44198;BME280;30157;55.512;37.764;2022-07-29T08:26:49;100085.00;;;27.88;31.93
44198;BME280;30157;55.512;37.764;2022-07-29T08:29:14;100084.97;;;27.64;31.58
44198;BME280;30157;55.512;37.764;2022-07-29T08:31:42;100080.00;;;29.48;29.81
44198;BME280;30157;55.512;37.764;2022-07-29T08:34:08;100106.91;;;31.09;28.45
44198;BME280;30157;55.512;37.764;2022-07-29T08:36:34;100067.91;;;29.65;29.62
44198;BME280;30157;55.512;37.764;2022-07-29T08:39:03;100099.06;;;29.32;30.06
44198;BME280;30157;55.512;37.764;2022-07-29T08:41:29;100090.75;;;28.90;30.50
44198;BME280;30157;55.512;37.764;2022-07-29T08:43:55;100091.72;;;27.81;32.13
44198;BME280;30157;55.512;37.764;2022-07-29T08:46:22;100085.28;;;27.96;31.51
44198;BME280;30157;55.512;37.764;2022-07-29T08:48:50;100075.38;;;29.62;29.42
44198;BME280;30157;55.512;37.764;2022-07-29T08:51:20;100052.81;;;30.73;28.24
44198;BME280;30157;55.512;37.764;2022-07-29T08:53:48;100088.56;;;30.30;28.58
44198;BME280;30157;55.512;37.764;2022-07-29T08:56:16;100092.38;;;30.91;27.79
44198;BME280;30157;55.512;37.764;2022-07-29T08:58:46;100069.16;;;30.70;27.90
44198;BME280;30157;55.512;37.764;2022-07-29T09:01:17;100043.03;;;30.93;27.39
44198;BME280;30157;55.512;37.764;2022-07-29T09:03:44;100085.63;;;31.48;26.74
44198;BME280;30157;55.512;37.764;2022-07-29T09:06:14;100086.09;;;30.06;27.72
44198;BME280;30157;55.512;37.764;2022-07-29T09:08:40;100035.41;;;28.45;29.88
44198;BME280;30157;55.512;37.764;2022-07-29T09:11:09;100080.47;;;28.02;30.92
44198;BME280;30157;55.512;37.764;2022-07-29T09:13:36;100093.94;;;29.86;29.29
44198;BME280;30157;55.512;37.764;2022-07-29T09:16:03;100082.25;;;31.56;27.29
44198;BME280;30157;55.512;37.764;2022-07-29T09:18:36;100091.75;;;31.60;26.96
44198;BME280;30157;55.512;37.764;2022-07-29T09:21:03;100072.78;;;32.52;26.25
44198;BME280;30157;55.512;37.764;2022-07-29T09:26:39;100072.91;;;32.01;25.34
44198;BME280;30157;55.512;37.764;2022-07-29T09:29:16;100080.13;;;30.46;26.53
44198;BME280;30157;55.512;37.764;2022-07-29T09:31:45;100093.59;;;29.45;28.72
44198;BME280;30157;55.512;37.764;2022-07-29T09:34:12;100089.19;;;30.55;27.27
44198;BME280;30157;55.512;37.764;2022-07-29T09:36:46;100074.47;;;30.28;27.96
44198;BME280;30157;55.512;37.764;2022-07-29T09:39:14;100046.41;;;29.67;28.47
44198;BME280;30157;55.512;37.764;2022-07-29T09:41:54;100084.44;;;28.80;29.52
44198;BME280;30157;55.512;37.764;2022-07-29T09:44:22;100098.09;;;27.91;31.72
44198;BME280;30157;55.512;37.764;2022-07-29T09:47:02;100108.63;;;27.30;32.06
44198;BME280;30157;55.512;37.764;2022-07-29T09:49:32;100047.63;;;27.01;32.80
44198;BME280;30157;55.512;37.764;2022-07-29T09:52:09;100084.31;;;28.93;30.50
44198;BME280;30157;55.512;37.764;2022-07-29T09:54:36;100105.19;;;28.52;30.25
44198;BME280;30157;55.512;37.764;2022-07-29T09:57:07;100100.78;;;27.78;31.41
44198;BME280;30157;55.512;37.764;2022-07-29T09:59:35;100085.84;;;27.39;32.89
44198;BME280;30157;55.512;37.764;2022-07-29T10:02:11;100092.97;;;26.87;34.82
44198;BME280;30157;55.512;37.764;2022-07-29T10:04:41;100093.50;;;27.56;34.06
44198;BME280;30157;55.512;37.764;2022-07-29T10:07:07;100101.66;;;30.12;31.12
44198;BME280;30157;55.512;37.764;2022-07-29T10:09:33;100101.81;;;31.68;28.33
44198;BME280;30157;55.512;37.764;2022-07-29T10:12:12;100089.69;;;32.91;26.26
44198;BME280;30157;55.512;37.764;2022-07-29T10:14:42;100083.81;;;33.53;25.02
44198;BME280;30157;55.512;37.764;2022-07-29T10:17:10;100084.22;;;33.58;24.79
44198;BME280;30157;55.512;37.764;2022-07-29T10:19:37;100101.16;;;34.14;24.78
44198;BME280;30157;55.512;37.764;2022-07-29T10:22:05;100059.91;;;33.96;24.66
44198;BME280;30157;55.512;37.764;2022-07-29T10:24:32;100087.06;;;32.23;26.44
44198;BME280;30157;55.512;37.764;2022-07-29T10:27:00;100092.44;;;32.42;26.41
44198;BME280;30157;55.512;37.764;2022-07-29T10:29:26;100089.03;;;33.17;26.15
44198;BME280;30157;55.512;37.764;2022-07-29T10:34:57;100056.25;;;33.69;24.69
44198;BME280;30157;55.512;37.764;2022-07-29T10:43:25;100087.25;;;29.92;28.39
44198;BME280;30157;55.512;37.764;2022-07-29T10:45:56;100041.13;;;30.74;27.84
44198;BME280;30157;55.512;37.764;2022-07-29T10:48:23;100062.31;;;31.99;26.64
44198;BME280;30157;55.512;37.764;2022-07-29T10:51:02;100091.06;;;33.43;23.98
44198;BME280;30157;55.512;37.764;2022-07-29T10:53:48;100090.00;;;34.09;22.81
44198;BME280;30157;55.512;37.764;2022-07-29T10:56:30;100092.38;;;33.39;23.32
44198;BME280;30157;55.512;37.764;2022-07-29T11:01:49;100087.91;;;33.85;23.62
44198;BME280;30157;55.512;37.764;2022-07-29T11:04:16;100081.75;;;33.93;23.04
44198;BME280;30157;55.512;37.764;2022-07-29T11:09:27;100040.94;;;34.86;21.58
44198;BME280;30157;55.512;37.764;2022-07-29T11:11:56;100087.00;;;35.78;20.63
44198;BME280;30157;55.512;37.764;2022-07-29T11:14:59;100085.66;;;35.74;20.76
44198;BME280;30157;55.512;37.764;2022-07-29T11:17:29;100086.41;;;36.09;20.27
44198;BME280;30157;55.512;37.764;2022-07-29T11:22:55;99988.28;;;32.93;23.06
44198;BME280;30157;55.512;37.764;2022-07-29T11:25:21;100082.41;;;30.93;25.83
44198;BME280;30157;55.512;37.764;2022-07-29T11:27:47;100040.44;;;30.19;26.66
44198;BME280;30157;55.512;37.764;2022-07-29T11:30:13;100088.59;;;29.29;27.80
44198;BME280;30157;55.512;37.764;2022-07-29T11:32:43;100059.50;;;29.93;27.56
44198;BME280;30157;55.512;37.764;2022-07-29T11:37:43;100088.47;;;29.08;28.88
44198;BME280;30157;55.512;37.764;2022-07-29T11:40:11;100077.69;;;29.44;28.41
44198;BME280;30157;55.512;37.764;2022-07-29T11:42:39;100096.81;;;28.57;29.44
44198;BME280;30157;55.512;37.764;2022-07-29T11:45:06;100103.25;;;27.81;30.63
44198;BME280;30157;55.512;37.764;2022-07-29T11:47:39;100085.00;;;27.38;30.83
44198;BME280;30157;55.512;37.764;2022-07-29T11:50:11;100067.53;;;27.08;31.91
44198;BME280;30157;55.512;37.764;2022-07-29T11:52:42;100112.94;;;28.20;30.67
44198;BME280;30157;55.512;37.764;2022-07-29T11:55:18;100106.31;;;31.37;27.11
44198;BME280;30157;55.512;37.764;2022-07-29T11:57:50;100083.63;;;30.14;27.95
44198;BME280;30157;55.512;37.764;2022-07-29T12:02:52;100067.44;;;28.10;30.31
44198;BME280;30157;55.512;37.764;2022-07-29T12:05:19;100104.63;;;27.74;31.36
44198;BME280;30157;55.512;37.764;2022-07-29T12:07:46;100052.50;;;27.07;31.93
44198;BME280;30157;55.512;37.764;2022-07-29T12:10:12;100087.97;;;27.21;32.75
44198;BME280;30157;55.512;37.764;2022-07-29T12:12:38;100102.56;;;27.54;32.61
44198;BME280;30157;55.512;37.764;2022-07-29T12:15:12;100104.78;;;29.39;29.98
44198;BME280;30157;55.512;37.764;2022-07-29T12:17:38;100089.72;;;30.37;29.08
44198;BME280;30157;55.512;37.764;2022-07-29T12:20:05;100046.31;;;31.78;26.55
44198;BME280;30157;55.512;37.764;2022-07-29T12:22:36;100081.78;;;32.90;25.38
44198;BME280;30157;55.512;37.764;2022-07-29T12:25:05;100088.66;;;33.02;24.54
44198;BME280;30157;55.512;37.764;2022-07-29T12:27:31;100091.81;;;32.09;25.77
44198;BME280;30157;55.512;37.764;2022-07-29T12:30:00;100055.97;;;32.20;25.38
44198;BME280;30157;55.512;37.764;2022-07-29T12:32:37;100090.44;;;32.44;26.31
44198;BME280;30157;55.512;37.764;2022-07-29T12:35:15;100051.75;;;32.17;26.72
44198;BME280;30157;55.512;37.764;2022-07-29T12:37:43;100084.09;;;32.36;25.77
44198;BME280;30157;55.512;37.764;2022-07-29T12:40:15;100075.50;;;31.21;26.57
44198;BME280;30157;55.512;37.764;2022-07-29T12:43:12;100088.03;;;30.69;27.68
44198;BME280;30157;55.512;37.764;2022-07-29T12:45:39;100082.44;;;30.07;27.79
44198;BME280;30157;55.512;37.764;2022-07-29T12:48:06;100083.88;;;29.56;28.24
44198;BME280;30157;55.512;37.764;2022-07-29T12:50:35;100075.03;;;29.32;29.21
44198;BME280;30157;55.512;37.764;2022-07-29T12:53:09;100063.09;;;29.03;30.15
44198;BME280;30157;55.512;37.764;2022-07-29T12:55:48;100010.13;;;28.27;30.64
44198;BME280;30157;55.512;37.764;2022-07-29T12:58:39;100082.44;;;28.11;31.42
44198;BME280;30157;55.512;37.764;2022-07-29T13:03:52;100093.28;;;27.21;32.51
44198;BME280;30157;55.512;37.764;2022-07-29T13:09:10;100078.84;;;26.46;33.32
44198;BME280;30157;55.512;37.764;2022-07-29T13:11:39;100088.75;;;26.70;34.57
44198;BME280;30157;55.512;37.764;2022-07-29T13:14:08;100075.25;;;26.60;34.01
44198;BME280;30157;55.512;37.764;2022-07-29T13:16:34;100060.72;;;26.38;33.91
44198;BME280;30157;55.512;37.764;2022-07-29T13:19:12;100087.81;;;26.58;34.28
44198;BME280;30157;55.512;37.764;2022-07-29T13:21:39;100093.47;;;26.66;33.43
44198;BME280;30157;55.512;37.764;2022-07-29T13:24:06;100079.09;;;26.69;33.78
44198;BME280;30157;55.512;37.764;2022-07-29T13:26:32;100023.56;;;26.24;32.96
44198;BME280;30157;55.512;37.764;2022-07-29T13:28:58;100059.84;;;26.25;33.48
44198;BME280;30157;55.512;37.764;2022-07-29T13:31:24;100037.34;;;25.89;33.53